Terminal Aerodrome Forecast
Issued by NWS

Home | Current Version | Previous Version | Graphics & Text | Print | Product List | Glossary On
Versions: 1 2 3 4 5 6 7 8 9 10 11 12 13 14 15 16 17 18 19 20 21
000
FTUS43 KTOP 312300
TAFMHK
TAF
KMHK 312328Z 0100/0124 20021G31KT P6SM BKN200
     FM010100 17015G23KT P6SM VCTS BKN050CB
      TEMPO 0101/0105 VRB25G45KT 2SM +TSRA BR BKN025CB
     FM010700 22006KT P6SM BKN150
     FM011500 34007KT P6SM SCT150=

USA.gov is the U.S. government's official web portal to all federal, state and local government web resources and services.